sensor_id;sensor_type;location;lat;lon;timestamp;pressure;altitude;pressure_sealevel;temperature;humidity
65054;BME280;51639;47.828;35.038;2023-04-07T00:10:12;100300.56;;;9.16;100.00
65054;BME280;51639;47.828;35.038;2023-04-07T00:25:14;100298.47;;;8.93;100.00
65054;BME280;51639;47.828;35.038;2023-04-07T00:40:16;100305.19;;;8.74;100.00
65054;BME280;51639;47.828;35.038;2023-04-07T00:55:18;100301.75;;;8.74;100.00
65054;BME280;51639;47.828;35.038;2023-04-07T01:10:26;100301.38;;;8.72;100.00
65054;BME280;51639;47.828;35.038;2023-04-07T01:41:16;100298.78;;;8.58;100.00
65054;BME280;51639;47.828;35.038;2023-04-07T01:56:18;100294.22;;;8.47;100.00
65054;BME280;51639;47.828;35.038;2023-04-07T02:11:20;100283.09;;;8.38;100.00
65054;BME280;51639;47.828;35.038;2023-04-07T02:26:23;100281.19;;;8.35;100.00
65054;BME280;51639;47.828;35.038;2023-04-07T02:41:25;100279.53;;;8.48;100.00
65054;BME280;51639;47.828;35.038;2023-04-07T02:56:28;100288.72;;;8.58;100.00
65054;BME280;51639;47.828;35.038;2023-04-07T03:11:29;100289.44;;;8.66;100.00
65054;BME280;51639;47.828;35.038;2023-04-07T03:26:31;100305.91;;;8.82;100.00
65054;BME280;51639;47.828;35.038;2023-04-07T03:41:34;100302.47;;;8.74;100.00
65054;BME280;51639;47.828;35.038;2023-04-07T03:56:36;100315.06;;;8.95;100.00
65054;BME280;51639;47.828;35.038;2023-04-07T04:11:38;100319.25;;;9.00;100.00
65054;BME280;51639;47.828;35.038;2023-04-07T04:26:39;100338.34;;;9.27;100.00
65054;BME280;51639;47.828;35.038;2023-04-07T04:41:42;100331.88;;;9.51;100.00
65054;BME280;51639;47.828;35.038;2023-04-07T04:56:44;100334.31;;;9.72;100.00
65054;BME280;51639;47.828;35.038;2023-04-07T05:11:46;100332.75;;;10.05;100.00
65054;BME280;51639;47.828;35.038;2023-04-07T05:26:48;100348.06;;;10.19;100.00
65054;BME280;51639;47.828;35.038;2023-04-07T05:41:51;100342.56;;;10.26;100.00
65054;BME280;51639;47.828;35.038;2023-04-07T05:56:52;100341.84;;;10.22;100.00
65054;BME280;51639;47.828;35.038;2023-04-07T06:11:54;100350.16;;;10.08;100.00
65054;BME280;51639;47.828;35.038;2023-04-07T06:26:57;100351.25;;;10.41;100.00
65054;BME280;51639;47.828;35.038;2023-04-07T06:41:59;100364.63;;;10.55;100.00
65054;BME280;51639;47.828;35.038;2023-04-07T06:57:02;100386.38;;;10.51;100.00
65054;BME280;51639;47.828;35.038;2023-04-07T07:12:04;100368.56;;;10.50;100.00
65054;BME280;51639;47.828;35.038;2023-04-07T07:27:06;100387.91;;;10.52;100.00
65054;BME280;51639;47.828;35.038;2023-04-07T07:42:09;100380.72;;;10.89;100.00
65054;BME280;51639;47.828;35.038;2023-04-07T07:57:11;100374.25;;;10.83;100.00
65054;BME280;51639;47.828;35.038;2023-04-07T08:12:13;100379.16;;;10.41;100.00
65054;BME280;51639;47.828;35.038;2023-04-07T08:27:15;100372.72;;;10.82;100.00
65054;BME280;51639;47.828;35.038;2023-04-07T08:42:19;100371.63;;;10.52;100.00
65054;BME280;51639;47.828;35.038;2023-04-07T08:57:22;100378.41;;;10.64;100.00
65054;BME280;51639;47.828;35.038;2023-04-07T09:12:26;100389.22;;;10.68;100.00
65054;BME280;51639;47.828;35.038;2023-04-07T09:27:28;100382.41;;;10.83;100.00
65054;BME280;51639;47.828;35.038;2023-04-07T09:42:31;100381.69;;;11.02;100.00
65054;BME280;51639;47.828;35.038;2023-04-07T09:57:36;100390.31;;;10.97;100.00
65054;BME280;51639;47.828;35.038;2023-04-07T10:12:40;100380.72;;;10.89;100.00
65054;BME280;51639;47.828;35.038;2023-04-07T10:27:48;100376.47;;;10.88;100.00
65054;BME280;51639;47.828;35.038;2023-04-07T10:42:51;100381.19;;;11.31;100.00
65054;BME280;51639;47.828;35.038;2023-04-07T10:58:24;100386.84;;;11.59;100.00
65054;BME280;51639;47.828;35.038;2023-04-07T11:13:26;100379.28;;;11.90;100.00
65054;BME280;51639;47.828;35.038;2023-04-07T11:28:29;100358.25;;;12.11;100.00
65054;BME280;51639;47.828;35.038;2023-04-07T11:43:32;100350.28;;;12.36;100.00
65054;BME280;51639;47.828;35.038;2023-04-07T11:58:37;100345.47;;;12.08;100.00
65054;BME280;51639;47.828;35.038;2023-04-07T12:13:39;100335.28;;;12.12;100.00
65054;BME280;51639;47.828;35.038;2023-04-07T12:28:41;100325.00;;;12.52;100.00
65054;BME280;51639;47.828;35.038;2023-04-07T12:43:44;100315.84;;;13.07;100.00
65054;BME280;51639;47.828;35.038;2023-04-07T12:58:48;100308.97;;;13.31;100.00
65054;BME280;51639;47.828;35.038;2023-04-07T13:13:51;100305.91;;;13.29;100.00
65054;BME280;51639;47.828;35.038;2023-04-07T13:28:58;100309.72;;;13.61;100.00
65054;BME280;51639;47.828;35.038;2023-04-07T13:44:00;100319.66;;;13.68;100.00
65054;BME280;51639;47.828;35.038;2023-04-07T13:59:06;100319.28;;;13.53;100.00
65054;BME280;51639;47.828;35.038;2023-04-07T14:14:08;100311.19;;;13.37;100.00
65054;BME280;51639;47.828;35.038;2023-04-07T14:29:11;100312.19;;;13.43;100.00
65054;BME280;51639;47.828;35.038;2023-04-07T14:44:14;100318.16;;;13.38;100.00
65054;BME280;51639;47.828;35.038;2023-04-07T14:59:16;100313.00;;;13.27;100.00
65054;BME280;51639;47.828;35.038;2023-04-07T15:14:18;100320.75;;;13.28;100.00
65054;BME280;51639;47.828;35.038;2023-04-07T15:29:20;100316.91;;;13.26;100.00
65054;BME280;51639;47.828;35.038;2023-04-07T15:44:22;100319.59;;;13.13;100.00
65054;BME280;51639;47.828;35.038;2023-04-07T15:59:38;100322.25;;;13.17;100.00
65054;BME280;51639;47.828;35.038;2023-04-07T16:14:40;100329.13;;;13.05;100.00
65054;BME280;51639;47.828;35.038;2023-04-07T16:29:42;100334.91;;;13.23;100.00
65054;BME280;51639;47.828;35.038;2023-04-07T16:44:45;100348.88;;;13.25;100.00
65054;BME280;51639;47.828;35.038;2023-04-07T16:59:47;100394.16;;;12.74;100.00
65054;BME280;51639;47.828;35.038;2023-04-07T17:14:49;100390.03;;;12.82;100.00
65054;BME280;51639;47.828;35.038;2023-04-07T17:29:51;100390.66;;;12.74;100.00
65054;BME280;51639;47.828;35.038;2023-04-07T17:44:53;100391.81;;;12.56;100.00
65054;BME280;51639;47.828;35.038;2023-04-07T17:59:55;100395.91;;;12.48;100.00
65054;BME280;51639;47.828;35.038;2023-04-07T18:14:57;100399.25;;;12.20;100.00
65054;BME280;51639;47.828;35.038;2023-04-07T18:29:59;100413.50;;;12.08;100.00
65054;BME280;51639;47.828;35.038;2023-04-07T18:45:01;100395.00;;;12.19;100.00
65054;BME280;51639;47.828;35.038;2023-04-07T19:00:04;100396.94;;;12.02;100.00
65054;BME280;51639;47.828;35.038;2023-04-07T19:15:06;100388.41;;;12.00;100.00
65054;BME280;51639;47.828;35.038;2023-04-07T19:30:08;100412.72;;;12.07;100.00
65054;BME280;51639;47.828;35.038;2023-04-07T19:45:11;100414.69;;;12.07;100.00
65054;BME280;51639;47.828;35.038;2023-04-07T20:00:13;100419.28;;;12.10;100.00
65054;BME280;51639;47.828;35.038;2023-04-07T20:15:15;100423.06;;;12.16;100.00
65054;BME280;51639;47.828;35.038;2023-04-07T20:30:17;100401.28;;;12.16;100.00
65054;BME280;51639;47.828;35.038;2023-04-07T20:45:20;100385.72;;;12.16;100.00
65054;BME280;51639;47.828;35.038;2023-04-07T21:00:22;100378.09;;;11.91;100.00
65054;BME280;51639;47.828;35.038;2023-04-07T21:15:24;100380.88;;;11.88;100.00
65054;BME280;51639;47.828;35.038;2023-04-07T21:30:26;100386.19;;;11.95;100.00
65054;BME280;51639;47.828;35.038;2023-04-07T21:45:28;100394.63;;;12.01;100.00
65054;BME280;51639;47.828;35.038;2023-04-07T22:00:30;100388.47;;;11.97;100.00
65054;BME280;51639;47.828;35.038;2023-04-07T22:15:32;100397.13;;;11.91;100.00
65054;BME280;51639;47.828;35.038;2023-04-07T22:30:34;100395.16;;;11.72;100.00
65054;BME280;51639;47.828;35.038;2023-04-07T22:45:36;100398.88;;;11.82;100.00
65054;BME280;51639;47.828;35.038;2023-04-07T23:00:38;100383.03;;;11.57;100.00
65054;BME280;51639;47.828;35.038;2023-04-07T23:15:40;100380.44;;;11.50;100.00
65054;BME280;51639;47.828;35.038;2023-04-07T23:30:42;100379.44;;;11.40;100.00
65054;BME280;51639;47.828;35.038;2023-04-07T23:45:44;100375.59;;;11.38;100.00
